Airfield :
LOGIN :

Register | Disclaimer

   EN    FR    IT 

 










Legend :    VFR   Marginal VFR   IFR   Intensive IFR   Very Intensive IFR
Visi :
Ceiling :
>= 8 km
>= 3000ft
5 to 8 km
1000 to 3000 ft
1500m to 5 km
500 to 1000 ft
800 to 1500m
200 to 500 ft
< 800m
< 200 ft
Symbols :   Thunderstorms  Fog  Heavy snow  Heavy precipitations  Wind > 20 kt
SIGMETs :     Misc.  Thunderstorms  Icing  Turbulence  Mountain Waves  Volcanic Ashes







- Airport Elevation : 374 ft
- IATA code : LIS


LPPT - Lisboa Portela

CURRENT METAR :
  • 210430Z VRB02KT 9999 BKN014 13/10 Q1032

EXPIRED METARs :
  • 210400Z VRB02KT 9999 BKN014 12/10 Q1032
  • 210330Z 34006KT 9999 BKN012 12/10 Q1032
  • 210300Z 32005KT 280V340 9999 BKN012 12/10 Q1032
  • 210230Z 31004KT 270V340 9999 BKN012 12/10 Q1032
  • 210200Z 32003KT 280V360 9999 BKN012 12/10 Q1032

TAF TAF LPPT
Valid from the 21 at 00:00 until the 22 at 06:00 UTC


202300Z 2100/2206 33005KT 9999 BKN015
BECMG 2103/2105 5000 BR BKN003
PROB30 2106/2110 06005KT 0100 FG VV001
BECMG 2110/2112 34010KT 9999 NSW BKN020
BECMG 2116/2118 FEW018
BECMG 2121/2124 BKN008
TEMPO 2200/2206 6000 BKN003
No reported NOTAMs for that airfield.



MET'MAP, your aeronautical weather chart ! - Copyright ORBIFLY December 2007 - Disclaimer

ORBIFLY MET'MAP TEAM :

Programming & Development : Alexandra Zaïnal
Concept & Development : Baudouin d'Aumeries
Co-Development & Prog : Marc-Olivier Méhu
Technical & hardware support : Manuel Goepfert

Contact : metmap@orbifly.com




SOURCES & CREDITS :

   NOAA